createdAt,value
2018-12-27T00:02:03.931Z,16.85
2018-12-27T00:08:42.665Z,15.43
2018-12-27T00:15:23.849Z,14.35
2018-12-27T00:21:50.246Z,10.98
2018-12-27T00:28:17.508Z,10.98
2018-12-27T00:34:43.983Z,11.75
2018-12-27T00:41:12.181Z,9.30
2018-12-27T00:47:39.055Z,11.83
2018-12-27T00:54:05.839Z,9.68
2018-12-27T01:04:06.791Z,9.43
2018-12-27T01:10:45.743Z,12.15
2018-12-27T01:17:24.693Z,9.23
2018-12-27T01:24:03.637Z,13.50
2018-12-27T01:30:32.490Z,10.43
2018-12-27T01:36:58.308Z,10.05
2018-12-27T01:43:22.110Z,10.93
2018-12-27T01:49:51.970Z,12.23
2018-12-27T01:56:32.947Z,9.63
2018-12-27T02:05:59.559Z,13.05
2018-12-27T02:12:27.400Z,10.72
2018-12-27T02:18:59.283Z,11.85
2018-12-27T02:25:27.807Z,10.32
2018-12-27T02:31:46.930Z,16.40
2018-12-27T02:38:23.606Z,9.08
2018-12-27T02:44:54.687Z,10.08
2018-12-27T02:51:20.515Z,10.78
2018-12-27T02:57:49.664Z,10.15
2018-12-27T03:07:29.761Z,9.85
2018-12-27T03:13:57.958Z,9.43
2018-12-27T03:20:27.605Z,12.10
2018-12-27T03:26:55.651Z,13.00
2018-12-27T03:32:59.503Z,10.90
2018-12-27T03:39:41.878Z,11.83
2018-12-27T03:46:24.929Z,8.75
2018-12-27T03:53:04.708Z,11.28
2018-12-27T03:59:43.129Z,7.92
2018-12-27T04:09:13.784Z,10.65
2018-12-27T04:15:54.435Z,7.45
2018-12-27T04:22:31.682Z,11.03
2018-12-27T04:29:12.652Z,11.75
2018-12-27T04:35:39.024Z,10.05
2018-12-27T04:42:09.341Z,7.12
2018-12-27T04:48:34.819Z,9.35
2018-12-27T04:51:31.362Z,7.45
2018-12-27T04:57:56.720Z,11.08
2018-12-27T05:04:34.524Z,9.88
2018-12-27T05:11:16.352Z,7.55
2018-12-27T05:17:55.594Z,7.05
2018-12-27T05:24:34.540Z,8.53
2018-12-27T05:31:14.446Z,13.15
2018-12-27T05:37:52.442Z,8.50
2018-12-27T05:44:29.376Z,10.13
2018-12-27T05:51:06.301Z,7.47
2018-12-27T05:57:35.938Z,6.97
2018-12-27T06:04:21.046Z,11.25
2018-12-27T06:10:59.112Z,8.60
2018-12-27T06:17:24.934Z,6.20
2018-12-27T06:23:50.753Z,7.92
2018-12-27T06:30:18.368Z,10.50
2018-12-27T06:36:09.813Z,7.85
2018-12-27T06:42:37.714Z,7.37
2018-12-27T06:49:05.754Z,14.30
2018-12-27T06:58:41.105Z,6.90
2018-12-27T07:05:06.144Z,7.58
2018-12-27T07:11:33.094Z,9.75
2018-12-27T07:18:00.704Z,7.80
2018-12-27T07:24:29.786Z,9.05
2018-12-27T07:30:55.602Z,8.58
2018-12-27T07:37:34.558Z,5.87
2018-12-27T07:44:04.414Z,6.85
2018-12-27T07:50:30.035Z,6.58
2018-12-27T08:00:43.302Z,6.62
2018-12-27T08:07:08.120Z,5.97
2018-12-27T08:13:34.497Z,6.67
2018-12-27T08:19:59.527Z,6.67
2018-12-27T08:26:23.336Z,6.92
2018-12-27T08:32:52.053Z,8.93
2018-12-27T08:39:18.222Z,7.55
2018-12-27T08:45:44.045Z,10.53
2018-12-27T08:52:09.859Z,9.73
2018-12-27T09:02:14.853Z,8.90
2018-12-27T09:08:53.815Z,10.88
2018-12-27T09:15:11.210Z,8.50
2018-12-27T09:21:52.217Z,8.20
2018-12-27T09:28:19.615Z,9.68
2018-12-27T09:34:45.954Z,9.63
2018-12-27T09:41:11.805Z,8.10
2018-12-27T09:47:36.427Z,7.92
2018-12-27T09:54:02.630Z,11.90
2018-12-27T10:04:05.601Z,10.80
2018-12-27T10:10:44.550Z,14.95
2018-12-27T10:16:48.153Z,18.02
2018-12-27T10:23:13.753Z,12.00
2018-12-27T10:29:40.801Z,8.70
2018-12-27T10:36:08.642Z,9.90
2018-12-27T10:42:34.458Z,9.87
2018-12-27T10:49:00.282Z,12.57
2018-12-27T10:55:31.150Z,9.13
2018-12-27T11:05:36.147Z,11.80
2018-12-27T11:12:22.928Z,10.93
2018-12-27T11:19:10.082Z,9.60
2018-12-27T11:25:51.091Z,14.07
2018-12-27T11:32:19.802Z,10.27
2018-12-27T11:38:46.851Z,10.53
2018-12-27T11:45:14.418Z,13.00
2018-12-27T11:51:40.512Z,14.30
2018-12-27T11:58:21.223Z,12.40
2018-12-27T12:08:26.239Z,18.03
2018-12-27T12:14:52.071Z,15.33
2018-12-27T12:21:17.919Z,13.90
2018-12-27T12:27:45.952Z,14.00
2018-12-27T12:34:12.786Z,15.00
2018-12-27T12:40:40.377Z,15.53
2018-12-27T12:47:09.098Z,14.80
2018-12-27T12:53:45.390Z,15.87
2018-12-27T13:00:12.222Z,14.50
2018-12-27T13:10:14.796Z,15.43
2018-12-27T13:16:57.849Z,20.90
2018-12-27T13:23:40.171Z,17.10
2018-12-27T13:30:04.979Z,13.53
2018-12-27T13:36:32.605Z,14.47
2018-12-27T13:42:58.641Z,15.23
2018-12-27T13:49:25.470Z,12.10
2018-12-27T13:55:54.258Z,14.13
2018-12-27T14:02:19.132Z,16.20
2018-12-27T14:12:31.193Z,13.00
2018-12-27T14:18:39.838Z,13.87
2018-12-27T14:25:19.816Z,14.83
2018-12-27T14:32:01.488Z,15.43
2018-12-27T14:38:40.731Z,16.47
2018-12-27T14:45:19.678Z,17.10
2018-12-27T14:51:58.631Z,16.90
2018-12-27T14:58:37.578Z,15.00
2018-12-27T15:05:16.530Z,16.63
2018-12-27T15:14:52.993Z,17.57
2018-12-27T15:21:18.847Z,20.40
2018-12-27T15:27:51.658Z,25.60
2018-12-27T15:34:19.792Z,19.13
2018-12-27T15:40:45.620Z,20.27
2018-12-27T15:47:12.092Z,16.87
2018-12-27T15:53:02.703Z,23.30
2018-12-27T15:59:31.419Z,16.23
2018-12-27T16:05:59.616Z,18.40
2018-12-27T16:16:13.692Z,15.20
2018-12-27T16:22:41.220Z,17.30
2018-12-27T16:29:07.350Z,14.47
2018-12-27T16:35:37.011Z,17.00
2018-12-27T16:42:04.039Z,15.00
2018-12-27T16:48:31.926Z,16.50
2018-12-27T16:54:59.477Z,21.00
2018-12-27T17:01:28.572Z,17.07
2018-12-27T17:07:56.094Z,18.23
2018-12-27T17:18:24.642Z,17.23
2018-12-27T17:25:05.665Z,15.07
2018-12-27T17:31:49.522Z,18.10
2018-12-27T17:38:17.203Z,18.23
2018-12-27T17:44:43.058Z,15.13
2018-12-27T17:51:07.066Z,16.80
2018-12-27T17:57:40.897Z,17.80
2018-12-27T18:04:14.528Z,19.43
2018-12-27T18:10:42.435Z,15.97
2018-12-27T18:21:04.862Z,16.30
2018-12-27T18:27:35.391Z,17.80
2018-12-27T18:34:01.555Z,17.63
2018-12-27T18:40:42.251Z,20.93
2018-12-27T18:47:08.347Z,16.87
2018-12-27T18:53:33.945Z,18.80
2018-12-27T19:00:04.076Z,23.77
2018-12-27T19:06:36.947Z,22.77
2018-12-27T19:13:09.802Z,17.50
2018-12-27T19:23:33.759Z,19.50
2018-12-27T19:30:12.932Z,20.73
2018-12-27T19:36:49.860Z,20.07
2018-12-27T19:43:30.636Z,16.53
2018-12-27T19:50:09.779Z,19.47
2018-12-27T19:56:51.410Z,26.67
2018-12-27T20:03:32.418Z,29.13
2018-12-27T20:10:15.471Z,27.60
2018-12-27T20:16:56.693Z,21.17
2018-12-27T20:27:03.107Z,24.23
2018-12-27T20:33:28.968Z,18.57
2018-12-27T20:40:02.411Z,21.50
2018-12-27T20:46:50.456Z,17.43
2018-12-27T20:53:16.272Z,20.93
2018-12-27T20:59:44.112Z,22.23
2018-12-27T21:06:19.023Z,23.13
2018-12-27T21:12:06.921Z,19.27
2018-12-27T21:18:36.048Z,17.13
2018-12-27T21:28:45.954Z,20.57
2018-12-27T21:35:16.229Z,17.60
2018-12-27T21:41:46.084Z,18.17
2018-12-27T21:48:11.900Z,20.40
2018-12-27T21:54:35.499Z,21.90
2018-12-27T22:01:03.545Z,20.57
2018-12-27T22:07:34.420Z,19.07
2018-12-27T22:14:00.232Z,17.43
2018-12-27T22:20:27.908Z,19.30
2018-12-27T22:30:35.773Z,19.83
2018-12-27T22:37:18.822Z,21.57
2018-12-27T22:43:58.033Z,21.83
2018-12-27T22:50:23.633Z,16.23
2018-12-27T22:56:50.682Z,18.80
2018-12-27T23:02:41.148Z,22.33
2018-12-27T23:09:11.013Z,19.70
2018-12-27T23:15:35.820Z,20.80
2018-12-27T23:21:59.621Z,17.07
2018-12-27T23:32:02.591Z,22.20
2018-12-27T23:38:41.190Z,24.53
2018-12-27T23:45:09.383Z,24.20
2018-12-27T23:51:36.991Z,19.53
2018-12-27T23:58:03.041Z,22.47
